sensor_id;sensor_type;location;lat;lon;timestamp;P1;durP1;ratioP1;P2;durP2;ratioP2
48975;SDS011;34791;52.752;8.346;2022-08-01T00:00:03;20.02;;;7.88;;
48975;SDS011;34791;52.752;8.346;2022-08-01T00:02:29;19.17;;;7.78;;
48975;SDS011;34791;52.752;8.346;2022-08-01T00:04:55;16.20;;;7.63;;
48975;SDS011;34791;52.752;8.346;2022-08-01T00:07:21;18.90;;;7.63;;
48975;SDS011;34791;52.752;8.346;2022-08-01T00:09:46;19.63;;;9.15;;
48975;SDS011;34791;52.752;8.346;2022-08-01T00:12:11;17.48;;;8.20;;
48975;SDS011;34791;52.752;8.346;2022-08-01T00:14:36;18.25;;;8.88;;
48975;SDS011;34791;52.752;8.346;2022-08-01T00:17:02;18.10;;;8.75;;
48975;SDS011;34791;52.752;8.346;2022-08-01T00:19:27;18.17;;;8.98;;
48975;SDS011;34791;52.752;8.346;2022-08-01T00:21:52;16.75;;;7.95;;
48975;SDS011;34791;52.752;8.346;2022-08-01T00:24:17;12.77;;;6.95;;
48975;SDS011;34791;52.752;8.346;2022-08-01T00:26:43;13.55;;;6.35;;
48975;SDS011;34791;52.752;8.346;2022-08-01T00:29:08;12.18;;;6.13;;
48975;SDS011;34791;52.752;8.346;2022-08-01T00:31:33;11.98;;;6.50;;
48975;SDS011;34791;52.752;8.346;2022-08-01T00:33:58;11.63;;;6.05;;
48975;SDS011;34791;52.752;8.346;2022-08-01T00:36:24;12.50;;;6.65;;
48975;SDS011;34791;52.752;8.346;2022-08-01T00:38:49;14.30;;;6.50;;
48975;SDS011;34791;52.752;8.346;2022-08-01T00:41:14;12.48;;;6.70;;
48975;SDS011;34791;52.752;8.346;2022-08-01T00:43:39;14.88;;;6.63;;
48975;SDS011;34791;52.752;8.346;2022-08-01T00:46:05;10.30;;;6.28;;
48975;SDS011;34791;52.752;8.346;2022-08-01T00:48:30;10.93;;;6.35;;
48975;SDS011;34791;52.752;8.346;2022-08-01T00:50:55;13.43;;;6.03;;
48975;SDS011;34791;52.752;8.346;2022-08-01T00:53:21;13.73;;;6.45;;
48975;SDS011;34791;52.752;8.346;2022-08-01T00:55:46;14.80;;;6.88;;
48975;SDS011;34791;52.752;8.346;2022-08-01T00:58:12;11.43;;;6.63;;
48975;SDS011;34791;52.752;8.346;2022-08-01T01:00:37;11.73;;;6.35;;
48975;SDS011;34791;52.752;8.346;2022-08-01T01:03:02;12.27;;;6.20;;
48975;SDS011;34791;52.752;8.346;2022-08-01T01:05:27;13.10;;;7.07;;
48975;SDS011;34791;52.752;8.346;2022-08-01T01:15:55;10.93;;;6.38;;
48975;SDS011;34791;52.752;8.346;2022-08-01T01:18:25;13.13;;;7.15;;
48975;SDS011;34791;52.752;8.346;2022-08-01T01:23:50;12.82;;;6.88;;
48975;SDS011;34791;52.752;8.346;2022-08-01T01:31:17;18.02;;;8.55;;
48975;SDS011;34791;52.752;8.346;2022-08-01T01:33:44;16.58;;;8.80;;
48975;SDS011;34791;52.752;8.346;2022-08-01T01:36:10;18.70;;;9.30;;
48975;SDS011;34791;52.752;8.346;2022-08-01T01:38:39;17.50;;;9.82;;
48975;SDS011;34791;52.752;8.346;2022-08-01T01:41:07;23.02;;;10.30;;
48975;SDS011;34791;52.752;8.346;2022-08-01T01:43:33;21.20;;;10.93;;
48975;SDS011;34791;52.752;8.346;2022-08-01T01:46:00;19.77;;;10.68;;
48975;SDS011;34791;52.752;8.346;2022-08-01T01:48:27;20.70;;;11.40;;
48975;SDS011;34791;52.752;8.346;2022-08-01T01:50:53;23.00;;;10.38;;
48975;SDS011;34791;52.752;8.346;2022-08-01T01:53:20;24.98;;;11.50;;
48975;SDS011;34791;52.752;8.346;2022-08-01T01:55:46;20.75;;;10.73;;
48975;SDS011;34791;52.752;8.346;2022-08-01T01:58:13;19.98;;;10.25;;
48975;SDS011;34791;52.752;8.346;2022-08-01T02:00:39;20.83;;;10.43;;
48975;SDS011;34791;52.752;8.346;2022-08-01T02:03:05;18.50;;;9.90;;
48975;SDS011;34791;52.752;8.346;2022-08-01T02:05:31;20.63;;;9.80;;
48975;SDS011;34791;52.752;8.346;2022-08-01T02:07:59;21.10;;;10.35;;
48975;SDS011;34791;52.752;8.346;2022-08-01T02:10:24;17.20;;;9.55;;
48975;SDS011;34791;52.752;8.346;2022-08-01T02:12:50;19.35;;;10.45;;
48975;SDS011;34791;52.752;8.346;2022-08-01T02:15:16;23.90;;;10.90;;
48975;SDS011;34791;52.752;8.346;2022-08-01T02:17:43;21.38;;;10.45;;
48975;SDS011;34791;52.752;8.346;2022-08-01T02:20:10;19.92;;;9.70;;
48975;SDS011;34791;52.752;8.346;2022-08-01T02:22:47;19.15;;;9.68;;
48975;SDS011;34791;52.752;8.346;2022-08-01T02:27:43;20.08;;;10.00;;
48975;SDS011;34791;52.752;8.346;2022-08-01T02:35:01;19.25;;;9.13;;
48975;SDS011;34791;52.752;8.346;2022-08-01T02:37:27;24.00;;;9.95;;
48975;SDS011;34791;52.752;8.346;2022-08-01T02:39:54;27.73;;;10.10;;
48975;SDS011;34791;52.752;8.346;2022-08-01T02:42:19;24.10;;;9.85;;
48975;SDS011;34791;52.752;8.346;2022-08-01T02:44:45;21.92;;;11.02;;
48975;SDS011;34791;52.752;8.346;2022-08-01T02:47:12;20.05;;;10.07;;
48975;SDS011;34791;52.752;8.346;2022-08-01T02:49:44;21.08;;;10.68;;
48975;SDS011;34791;52.752;8.346;2022-08-01T02:52:12;24.27;;;10.75;;
48975;SDS011;34791;52.752;8.346;2022-08-01T02:54:37;28.85;;;11.63;;
48975;SDS011;34791;52.752;8.346;2022-08-01T02:57:04;21.33;;;10.75;;
48975;SDS011;34791;52.752;8.346;2022-08-01T02:59:31;24.05;;;10.57;;
48975;SDS011;34791;52.752;8.346;2022-08-01T03:01:56;23.45;;;10.60;;
48975;SDS011;34791;52.752;8.346;2022-08-01T03:04:22;23.85;;;10.48;;
48975;SDS011;34791;52.752;8.346;2022-08-01T03:06:48;22.58;;;11.05;;
48975;SDS011;34791;52.752;8.346;2022-08-01T03:09:14;29.48;;;11.38;;
48975;SDS011;34791;52.752;8.346;2022-08-01T03:11:41;29.20;;;12.13;;
48975;SDS011;34791;52.752;8.346;2022-08-01T03:14:07;22.30;;;10.65;;
48975;SDS011;34791;52.752;8.346;2022-08-01T03:16:33;23.33;;;10.73;;
48975;SDS011;34791;52.752;8.346;2022-08-01T03:19:00;22.40;;;10.80;;
48975;SDS011;34791;52.752;8.346;2022-08-01T03:21:26;27.45;;;11.20;;
48975;SDS011;34791;52.752;8.346;2022-08-01T03:23:52;23.90;;;11.27;;
48975;SDS011;34791;52.752;8.346;2022-08-01T03:26:22;24.67;;;11.93;;
48975;SDS011;34791;52.752;8.346;2022-08-01T03:28:49;24.17;;;11.48;;
48975;SDS011;34791;52.752;8.346;2022-08-01T03:31:15;23.75;;;11.70;;
48975;SDS011;34791;52.752;8.346;2022-08-01T03:33:41;25.48;;;11.82;;
48975;SDS011;34791;52.752;8.346;2022-08-01T03:36:07;28.73;;;11.55;;
48975;SDS011;34791;52.752;8.346;2022-08-01T03:38:34;28.55;;;12.23;;
48975;SDS011;34791;52.752;8.346;2022-08-01T03:41:02;29.45;;;12.57;;
48975;SDS011;34791;52.752;8.346;2022-08-01T03:46:01;26.67;;;12.25;;
48975;SDS011;34791;52.752;8.346;2022-08-01T03:48:29;27.10;;;12.63;;
48975;SDS011;34791;52.752;8.346;2022-08-01T03:50:56;28.58;;;13.52;;
48975;SDS011;34791;52.752;8.346;2022-08-01T03:53:24;30.58;;;13.85;;
48975;SDS011;34791;52.752;8.346;2022-08-01T03:55:50;30.17;;;13.60;;
48975;SDS011;34791;52.752;8.346;2022-08-01T03:58:17;26.10;;;13.05;;
48975;SDS011;34791;52.752;8.346;2022-08-01T04:00:43;27.85;;;13.45;;
48975;SDS011;34791;52.752;8.346;2022-08-01T04:03:09;32.45;;;13.75;;
48975;SDS011;34791;52.752;8.346;2022-08-01T04:05:35;33.05;;;13.98;;
48975;SDS011;34791;52.752;8.346;2022-08-01T04:08:00;19.80;;;9.82;;
48975;SDS011;34791;52.752;8.346;2022-08-01T04:10:28;17.30;;;8.93;;
48975;SDS011;34791;52.752;8.346;2022-08-01T04:12:53;22.17;;;9.07;;
48975;SDS011;34791;52.752;8.346;2022-08-01T04:15:18;21.02;;;9.18;;
48975;SDS011;34791;52.752;8.346;2022-08-01T04:17:45;15.50;;;7.97;;
48975;SDS011;34791;52.752;8.346;2022-08-01T04:20:10;13.80;;;7.70;;
48975;SDS011;34791;52.752;8.346;2022-08-01T04:22:36;13.45;;;7.53;;
48975;SDS011;34791;52.752;8.346;2022-08-01T04:25:01;18.63;;;8.50;;
48975;SDS011;34791;52.752;8.346;2022-08-01T04:27:29;14.30;;;8.18;;
48975;SDS011;34791;52.752;8.346;2022-08-01T04:29:56;15.73;;;8.57;;
48975;SDS011;34791;52.752;8.346;2022-08-01T04:32:22;16.15;;;8.98;;
48975;SDS011;34791;52.752;8.346;2022-08-01T04:34:48;18.55;;;10.15;;
48975;SDS011;34791;52.752;8.346;2022-08-01T04:37:14;14.55;;;8.90;;
48975;SDS011;34791;52.752;8.346;2022-08-01T04:39:41;16.75;;;9.02;;
48975;SDS011;34791;52.752;8.346;2022-08-01T04:42:06;16.42;;;8.82;;
48975;SDS011;34791;52.752;8.346;2022-08-01T04:44:32;19.50;;;9.35;;
48975;SDS011;34791;52.752;8.346;2022-08-01T04:47:00;17.73;;;10.18;;
48975;SDS011;34791;52.752;8.346;2022-08-01T04:49:28;17.58;;;9.73;;
48975;SDS011;34791;52.752;8.346;2022-08-01T04:51:55;18.05;;;9.95;;
48975;SDS011;34791;52.752;8.346;2022-08-01T04:54:28;15.40;;;9.32;;
48975;SDS011;34791;52.752;8.346;2022-08-01T04:56:54;15.25;;;8.73;;
48975;SDS011;34791;52.752;8.346;2022-08-01T05:02:06;15.90;;;8.57;;
48975;SDS011;34791;52.752;8.346;2022-08-01T05:04:32;11.38;;;8.00;;
48975;SDS011;34791;52.752;8.346;2022-08-01T05:06:57;12.32;;;8.00;;
48975;SDS011;34791;52.752;8.346;2022-08-01T05:09:22;13.27;;;7.90;;
48975;SDS011;34791;52.752;8.346;2022-08-01T05:11:47;14.85;;;7.60;;
48975;SDS011;34791;52.752;8.346;2022-08-01T05:14:13;14.15;;;8.88;;
48975;SDS011;34791;52.752;8.346;2022-08-01T05:16:38;13.60;;;7.43;;
48975;SDS011;34791;52.752;8.346;2022-08-01T05:19:03;12.48;;;7.35;;
48975;SDS011;34791;52.752;8.346;2022-08-01T05:21:28;9.80;;;6.13;;
48975;SDS011;34791;52.752;8.346;2022-08-01T05:23:53;9.63;;;6.18;;
48975;SDS011;34791;52.752;8.346;2022-08-01T05:26:19;12.45;;;6.30;;
48975;SDS011;34791;52.752;8.346;2022-08-01T05:28:44;14.18;;;6.45;;
48975;SDS011;34791;52.752;8.346;2022-08-01T05:31:09;10.00;;;5.55;;
48975;SDS011;34791;52.752;8.346;2022-08-01T05:33:34;9.55;;;4.90;;
48975;SDS011;34791;52.752;8.346;2022-08-01T05:36:00;8.07;;;4.95;;
48975;SDS011;34791;52.752;8.346;2022-08-01T05:38:25;9.65;;;4.85;;
48975;SDS011;34791;52.752;8.346;2022-08-01T05:40:50;10.57;;;4.57;;
48975;SDS011;34791;52.752;8.346;2022-08-01T05:43:15;9.35;;;4.70;;
48975;SDS011;34791;52.752;8.346;2022-08-01T05:45:41;7.85;;;4.32;;
48975;SDS011;34791;52.752;8.346;2022-08-01T05:48:06;9.40;;;4.60;;
48975;SDS011;34791;52.752;8.346;2022-08-01T05:50:32;8.50;;;3.90;;
48975;SDS011;34791;52.752;8.346;2022-08-01T05:52:57;9.27;;;3.78;;
48975;SDS011;34791;52.752;8.346;2022-08-01T05:55:23;8.68;;;3.65;;
48975;SDS011;34791;52.752;8.346;2022-08-01T05:57:48;5.97;;;2.95;;
48975;SDS011;34791;52.752;8.346;2022-08-01T06:00:13;7.60;;;3.47;;
48975;SDS011;34791;52.752;8.346;2022-08-01T06:02:40;9.07;;;2.85;;
48975;SDS011;34791;52.752;8.346;2022-08-01T06:05:05;8.93;;;2.78;;
48975;SDS011;34791;52.752;8.346;2022-08-01T06:07:31;5.32;;;2.05;;
48975;SDS011;34791;52.752;8.346;2022-08-01T06:09:56;5.78;;;2.08;;
48975;SDS011;34791;52.752;8.346;2022-08-01T06:12:21;6.78;;;2.20;;
48975;SDS011;34791;52.752;8.346;2022-08-01T06:14:46;4.57;;;1.90;;
48975;SDS011;34791;52.752;8.346;2022-08-01T06:17:12;5.57;;;1.92;;
48975;SDS011;34791;52.752;8.346;2022-08-01T06:19:37;5.13;;;2.50;;
48975;SDS011;34791;52.752;8.346;2022-08-01T06:22:02;6.32;;;2.30;;
48975;SDS011;34791;52.752;8.346;2022-08-01T06:24:27;7.45;;;2.40;;
48975;SDS011;34791;52.752;8.346;2022-08-01T06:26:53;6.63;;;2.22;;
48975;SDS011;34791;52.752;8.346;2022-08-01T06:29:18;9.43;;;2.60;;
48975;SDS011;34791;52.752;8.346;2022-08-01T06:31:43;5.85;;;2.10;;
48975;SDS011;34791;52.752;8.346;2022-08-01T06:34:08;6.97;;;2.47;;
48975;SDS011;34791;52.752;8.346;2022-08-01T06:36:34;6.35;;;2.50;;
48975;SDS011;34791;52.752;8.346;2022-08-01T06:38:59;5.95;;;2.47;;
48975;SDS011;34791;52.752;8.346;2022-08-01T06:41:24;6.35;;;2.50;;
48975;SDS011;34791;52.752;8.346;2022-08-01T06:43:49;7.18;;;2.28;;
48975;SDS011;34791;52.752;8.346;2022-08-01T06:46:14;7.03;;;2.10;;
48975;SDS011;34791;52.752;8.346;2022-08-01T06:48:40;7.85;;;2.55;;
48975;SDS011;34791;52.752;8.346;2022-08-01T06:51:05;7.40;;;2.53;;
48975;SDS011;34791;52.752;8.346;2022-08-01T06:53:37;10.57;;;2.60;;
48975;SDS011;34791;52.752;8.346;2022-08-01T06:56:02;10.27;;;2.88;;
48975;SDS011;34791;52.752;8.346;2022-08-01T06:58:30;11.32;;;5.10;;
48975;SDS011;34791;52.752;8.346;2022-08-01T07:00:55;13.52;;;7.45;;
48975;SDS011;34791;52.752;8.346;2022-08-01T07:03:20;14.82;;;7.30;;
48975;SDS011;34791;52.752;8.346;2022-08-01T07:05:46;12.75;;;6.90;;
48975;SDS011;34791;52.752;8.346;2022-08-01T07:08:11;13.95;;;7.20;;
48975;SDS011;34791;52.752;8.346;2022-08-01T07:10:36;16.95;;;7.82;;
48975;SDS011;34791;52.752;8.346;2022-08-01T07:13:01;17.73;;;9.75;;
48975;SDS011;34791;52.752;8.346;2022-08-01T07:15:26;20.70;;;11.82;;
48975;SDS011;34791;52.752;8.346;2022-08-01T07:17:52;21.45;;;12.02;;
48975;SDS011;34791;52.752;8.346;2022-08-01T07:20:17;19.88;;;11.65;;
48975;SDS011;34791;52.752;8.346;2022-08-01T07:22:42;19.40;;;10.32;;
48975;SDS011;34791;52.752;8.346;2022-08-01T07:25:08;17.77;;;9.50;;
48975;SDS011;34791;52.752;8.346;2022-08-01T07:27:33;17.00;;;8.73;;
48975;SDS011;34791;52.752;8.346;2022-08-01T07:29:59;16.75;;;8.70;;
48975;SDS011;34791;52.752;8.346;2022-08-01T07:32:24;12.07;;;7.88;;
48975;SDS011;34791;52.752;8.346;2022-08-01T07:34:49;10.80;;;6.40;;
48975;SDS011;34791;52.752;8.346;2022-08-01T07:37:14;9.65;;;4.50;;
48975;SDS011;34791;52.752;8.346;2022-08-01T07:39:40;9.25;;;3.75;;
48975;SDS011;34791;52.752;8.346;2022-08-01T07:42:05;8.15;;;3.50;;
48975;SDS011;34791;52.752;8.346;2022-08-01T07:44:30;7.95;;;3.10;;
48975;SDS011;34791;52.752;8.346;2022-08-01T07:46:55;7.68;;;2.90;;
48975;SDS011;34791;52.752;8.346;2022-08-01T07:49:21;8.02;;;2.58;;
48975;SDS011;34791;52.752;8.346;2022-08-01T07:51:47;10.63;;;2.53;;
48975;SDS011;34791;52.752;8.346;2022-08-01T07:54:12;10.68;;;2.97;;
48975;SDS011;34791;52.752;8.346;2022-08-01T07:56:37;7.15;;;2.40;;
48975;SDS011;34791;52.752;8.346;2022-08-01T07:59:02;11.77;;;3.22;;
48975;SDS011;34791;52.752;8.346;2022-08-01T08:01:27;11.25;;;2.97;;
48975;SDS011;34791;52.752;8.346;2022-08-01T08:03:53;12.43;;;3.53;;
48975;SDS011;34791;52.752;8.346;2022-08-01T08:06:18;12.32;;;3.75;;
48975;SDS011;34791;52.752;8.346;2022-08-01T08:08:43;12.02;;;4.40;;
48975;SDS011;34791;52.752;8.346;2022-08-01T08:11:08;13.63;;;3.92;;
48975;SDS011;34791;52.752;8.346;2022-08-01T08:13:34;13.38;;;4.65;;
48975;SDS011;34791;52.752;8.346;2022-08-01T08:15:59;14.60;;;4.93;;
48975;SDS011;34791;52.752;8.346;2022-08-01T08:18:24;12.77;;;5.30;;
48975;SDS011;34791;52.752;8.346;2022-08-01T08:20:50;11.35;;;4.57;;
48975;SDS011;34791;52.752;8.346;2022-08-01T08:23:15;10.57;;;4.22;;
48975;SDS011;34791;52.752;8.346;2022-08-01T08:25:59;17.98;;;5.03;;
48975;SDS011;34791;52.752;8.346;2022-08-01T08:28:24;12.52;;;4.72;;
48975;SDS011;34791;52.752;8.346;2022-08-01T08:30:50;9.90;;;4.15;;
48975;SDS011;34791;52.752;8.346;2022-08-01T08:33:15;10.63;;;3.20;;
48975;SDS011;34791;52.752;8.346;2022-08-01T08:35:40;11.73;;;3.00;;
48975;SDS011;34791;52.752;8.346;2022-08-01T08:38:08;11.07;;;2.65;;
48975;SDS011;34791;52.752;8.346;2022-08-01T08:40:35;8.40;;;2.13;;
48975;SDS011;34791;52.752;8.346;2022-08-01T08:43:00;9.50;;;2.00;;
48975;SDS011;34791;52.752;8.346;2022-08-01T08:45:27;7.07;;;1.95;;
48975;SDS011;34791;52.752;8.346;2022-08-01T08:47:53;9.40;;;1.90;;
48975;SDS011;34791;52.752;8.346;2022-08-01T08:50:19;8.38;;;1.75;;
48975;SDS011;34791;52.752;8.346;2022-08-01T08:52:45;8.52;;;1.85;;
48975;SDS011;34791;52.752;8.346;2022-08-01T08:55:11;8.13;;;1.88;;
48975;SDS011;34791;52.752;8.346;2022-08-01T08:57:38;10.48;;;1.83;;
48975;SDS011;34791;52.752;8.346;2022-08-01T09:00:04;8.32;;;1.98;;
48975;SDS011;34791;52.752;8.346;2022-08-01T09:02:29;9.30;;;2.10;;
48975;SDS011;34791;52.752;8.346;2022-08-01T09:04:55;9.07;;;2.03;;
48975;SDS011;34791;52.752;8.346;2022-08-01T09:07:20;9.30;;;1.90;;
48975;SDS011;34791;52.752;8.346;2022-08-01T09:09:46;11.05;;;2.58;;
48975;SDS011;34791;52.752;8.346;2022-08-01T09:12:15;8.93;;;2.35;;
48975;SDS011;34791;52.752;8.346;2022-08-01T09:14:45;17.05;;;2.70;;
48975;SDS011;34791;52.752;8.346;2022-08-01T09:17:10;13.38;;;2.55;;
48975;SDS011;34791;52.752;8.346;2022-08-01T09:19:41;10.95;;;2.60;;
48975;SDS011;34791;52.752;8.346;2022-08-01T09:22:10;9.75;;;2.50;;
48975;SDS011;34791;52.752;8.346;2022-08-01T09:24:36;9.75;;;2.75;;
48975;SDS011;34791;52.752;8.346;2022-08-01T09:27:14;11.20;;;2.67;;
48975;SDS011;34791;52.752;8.346;2022-08-01T09:29:40;11.02;;;2.13;;
48975;SDS011;34791;52.752;8.346;2022-08-01T09:32:06;10.57;;;2.40;;
48975;SDS011;34791;52.752;8.346;2022-08-01T09:34:31;8.65;;;1.73;;
48975;SDS011;34791;52.752;8.346;2022-08-01T09:36:58;8.82;;;2.45;;
48975;SDS011;34791;52.752;8.346;2022-08-01T09:39:25;8.57;;;2.05;;
48975;SDS011;34791;52.752;8.346;2022-08-01T09:41:51;8.23;;;1.92;;
48975;SDS011;34791;52.752;8.346;2022-08-01T09:44:17;10.75;;;2.05;;
48975;SDS011;34791;52.752;8.346;2022-08-01T09:46:55;7.28;;;1.98;;
48975;SDS011;34791;52.752;8.346;2022-08-01T09:49:30;7.60;;;2.15;;
48975;SDS011;34791;52.752;8.346;2022-08-01T09:51:56;6.57;;;1.77;;
48975;SDS011;34791;52.752;8.346;2022-08-01T09:54:29;7.63;;;1.80;;
48975;SDS011;34791;52.752;8.346;2022-08-01T09:56:55;9.07;;;1.60;;
48975;SDS011;34791;52.752;8.346;2022-08-01T09:59:38;9.07;;;1.60;;
48975;SDS011;34791;52.752;8.346;2022-08-01T10:02:05;8.98;;;1.75;;
48975;SDS011;34791;52.752;8.346;2022-08-01T10:04:30;9.43;;;1.90;;
48975;SDS011;34791;52.752;8.346;2022-08-01T10:07:03;8.57;;;1.88;;
48975;SDS011;34791;52.752;8.346;2022-08-01T10:09:29;10.82;;;1.83;;
48975;SDS011;34791;52.752;8.346;2022-08-01T10:11:55;7.32;;;1.85;;
48975;SDS011;34791;52.752;8.346;2022-08-01T10:14:22;9.20;;;1.85;;
48975;SDS011;34791;52.752;8.346;2022-08-01T10:16:47;9.15;;;1.73;;
48975;SDS011;34791;52.752;8.346;2022-08-01T10:19:12;12.65;;;2.05;;
48975;SDS011;34791;52.752;8.346;2022-08-01T10:21:38;11.80;;;1.92;;
48975;SDS011;34791;52.752;8.346;2022-08-01T10:24:04;8.63;;;1.73;;
48975;SDS011;34791;52.752;8.346;2022-08-01T10:26:32;7.45;;;1.42;;
48975;SDS011;34791;52.752;8.346;2022-08-01T10:28:58;9.85;;;1.80;;
48975;SDS011;34791;52.752;8.346;2022-08-01T10:31:23;9.55;;;2.10;;
48975;SDS011;34791;52.752;8.346;2022-08-01T10:33:49;6.95;;;1.58;;
48975;SDS011;34791;52.752;8.346;2022-08-01T10:36:17;8.32;;;1.63;;
48975;SDS011;34791;52.752;8.346;2022-08-01T10:38:42;8.05;;;1.70;;
48975;SDS011;34791;52.752;8.346;2022-08-01T10:41:07;9.48;;;1.70;;
48975;SDS011;34791;52.752;8.346;2022-08-01T10:43:33;7.55;;;1.63;;
48975;SDS011;34791;52.752;8.346;2022-08-01T10:45:58;10.55;;;1.75;;
48975;SDS011;34791;52.752;8.346;2022-08-01T10:48:26;9.43;;;1.80;;
48975;SDS011;34791;52.752;8.346;2022-08-01T10:50:53;8.80;;;1.77;;
48975;SDS011;34791;52.752;8.346;2022-08-01T10:53:24;10.07;;;1.83;;
48975;SDS011;34791;52.752;8.346;2022-08-01T10:56:00;8.70;;;1.70;;
48975;SDS011;34791;52.752;8.346;2022-08-01T10:58:33;8.13;;;1.80;;
48975;SDS011;34791;52.752;8.346;2022-08-01T11:01:17;6.25;;;1.45;;
48975;SDS011;34791;52.752;8.346;2022-08-01T11:03:45;6.55;;;1.30;;
48975;SDS011;34791;52.752;8.346;2022-08-01T11:06:22;8.82;;;1.77;;
48975;SDS011;34791;52.752;8.346;2022-08-01T11:08:52;10.13;;;1.92;;
48975;SDS011;34791;52.752;8.346;2022-08-01T11:11:19;10.60;;;1.65;;
48975;SDS011;34791;52.752;8.346;2022-08-01T11:16:45;9.18;;;1.60;;
48975;SDS011;34791;52.752;8.346;2022-08-01T11:19:10;6.85;;;1.65;;
48975;SDS011;34791;52.752;8.346;2022-08-01T11:25:02;9.00;;;1.63;;
48975;SDS011;34791;52.752;8.346;2022-08-01T11:32:33;10.13;;;2.03;;
48975;SDS011;34791;52.752;8.346;2022-08-01T11:34:58;14.20;;;2.05;;
48975;SDS011;34791;52.752;8.346;2022-08-01T11:37:29;9.23;;;1.83;;
48975;SDS011;34791;52.752;8.346;2022-08-01T11:42:38;8.02;;;1.60;;
48975;SDS011;34791;52.752;8.346;2022-08-01T11:45:03;10.25;;;2.28;;
48975;SDS011;34791;52.752;8.346;2022-08-01T11:47:45;9.65;;;2.17;;
48975;SDS011;34791;52.752;8.346;2022-08-01T11:53:03;11.77;;;1.77;;
48975;SDS011;34791;52.752;8.346;2022-08-01T11:55:29;9.55;;;1.85;;
48975;SDS011;34791;52.752;8.346;2022-08-01T11:58:01;14.20;;;2.00;;
48975;SDS011;34791;52.752;8.346;2022-08-01T12:00:26;10.27;;;2.13;;
48975;SDS011;34791;52.752;8.346;2022-08-01T12:02:59;9.75;;;1.77;;
48975;SDS011;34791;52.752;8.346;2022-08-01T12:05:25;8.80;;;1.60;;
48975;SDS011;34791;52.752;8.346;2022-08-01T12:07:51;10.98;;;1.85;;
48975;SDS011;34791;52.752;8.346;2022-08-01T12:10:18;6.63;;;1.80;;
48975;SDS011;34791;52.752;8.346;2022-08-01T12:12:45;10.50;;;1.90;;
48975;SDS011;34791;52.752;8.346;2022-08-01T12:15:11;9.23;;;1.60;;
48975;SDS011;34791;52.752;8.346;2022-08-01T12:17:37;8.50;;;2.05;;
48975;SDS011;34791;52.752;8.346;2022-08-01T12:20:03;10.07;;;1.67;;
48975;SDS011;34791;52.752;8.346;2022-08-01T12:22:29;9.07;;;1.65;;
48975;SDS011;34791;52.752;8.346;2022-08-01T12:24:55;8.77;;;1.83;;
48975;SDS011;34791;52.752;8.346;2022-08-01T12:27:30;7.93;;;1.42;;
48975;SDS011;34791;52.752;8.346;2022-08-01T12:29:56;9.68;;;1.45;;
48975;SDS011;34791;52.752;8.346;2022-08-01T12:32:22;11.48;;;1.90;;
48975;SDS011;34791;52.752;8.346;2022-08-01T12:34:48;8.70;;;1.50;;
48975;SDS011;34791;52.752;8.346;2022-08-01T12:37:14;7.45;;;1.70;;
48975;SDS011;34791;52.752;8.346;2022-08-01T12:39:39;7.35;;;1.50;;
48975;SDS011;34791;52.752;8.346;2022-08-01T12:42:06;6.88;;;1.60;;
48975;SDS011;34791;52.752;8.346;2022-08-01T12:44:31;8.57;;;1.45;;
48975;SDS011;34791;52.752;8.346;2022-08-01T12:46:57;7.50;;;1.60;;
48975;SDS011;34791;52.752;8.346;2022-08-01T12:49:22;7.20;;;1.42;;
48975;SDS011;34791;52.752;8.346;2022-08-01T12:51:48;8.35;;;1.70;;
48975;SDS011;34791;52.752;8.346;2022-08-01T12:54:14;11.63;;;1.70;;
48975;SDS011;34791;52.752;8.346;2022-08-01T12:56:39;8.10;;;1.55;;
48975;SDS011;34791;52.752;8.346;2022-08-01T12:59:24;10.00;;;1.40;;
48975;SDS011;34791;52.752;8.346;2022-08-01T13:01:52;10.13;;;1.85;;
48975;SDS011;34791;52.752;8.346;2022-08-01T13:04:18;7.30;;;1.60;;
48975;SDS011;34791;52.752;8.346;2022-08-01T13:06:43;9.10;;;1.70;;
48975;SDS011;34791;52.752;8.346;2022-08-01T13:09:09;6.78;;;1.40;;
48975;SDS011;34791;52.752;8.346;2022-08-01T13:11:36;7.95;;;1.52;;
48975;SDS011;34791;52.752;8.346;2022-08-01T13:14:01;6.90;;;1.40;;
48975;SDS011;34791;52.752;8.346;2022-08-01T13:16:26;12.43;;;2.15;;
48975;SDS011;34791;52.752;8.346;2022-08-01T13:18:53;12.55;;;2.35;;
48975;SDS011;34791;52.752;8.346;2022-08-01T13:21:39;6.47;;;1.48;;
48975;SDS011;34791;52.752;8.346;2022-08-01T13:26:41;9.55;;;1.50;;
48975;SDS011;34791;52.752;8.346;2022-08-01T13:29:08;5.90;;;1.25;;
48975;SDS011;34791;52.752;8.346;2022-08-01T13:31:34;6.05;;;1.45;;
48975;SDS011;34791;52.752;8.346;2022-08-01T13:33:59;8.55;;;1.50;;
48975;SDS011;34791;52.752;8.346;2022-08-01T13:36:25;10.13;;;1.70;;
48975;SDS011;34791;52.752;8.346;2022-08-01T13:38:54;8.55;;;1.83;;
48975;SDS011;34791;52.752;8.346;2022-08-01T13:41:38;6.13;;;1.45;;
48975;SDS011;34791;52.752;8.346;2022-08-01T13:44:03;10.85;;;1.50;;
48975;SDS011;34791;52.752;8.346;2022-08-01T13:46:28;5.40;;;1.20;;
48975;SDS011;34791;52.752;8.346;2022-08-01T13:48:54;5.72;;;1.30;;
48975;SDS011;34791;52.752;8.346;2022-08-01T13:51:19;7.00;;;1.50;;
48975;SDS011;34791;52.752;8.346;2022-08-01T13:53:44;7.55;;;1.52;;
48975;SDS011;34791;52.752;8.346;2022-08-01T13:56:09;5.75;;;1.40;;
48975;SDS011;34791;52.752;8.346;2022-08-01T13:58:35;7.35;;;1.20;;
48975;SDS011;34791;52.752;8.346;2022-08-01T14:01:01;5.93;;;1.30;;
48975;SDS011;34791;52.752;8.346;2022-08-01T14:03:26;9.43;;;1.65;;
48975;SDS011;34791;52.752;8.346;2022-08-01T14:05:52;7.97;;;1.63;;
48975;SDS011;34791;52.752;8.346;2022-08-01T14:08:17;9.60;;;1.52;;
48975;SDS011;34791;52.752;8.346;2022-08-01T14:10:42;6.95;;;1.55;;
48975;SDS011;34791;52.752;8.346;2022-08-01T14:13:08;6.72;;;1.40;;
48975;SDS011;34791;52.752;8.346;2022-08-01T14:15:33;5.22;;;1.20;;
48975;SDS011;34791;52.752;8.346;2022-08-01T14:17:58;8.38;;;1.45;;
48975;SDS011;34791;52.752;8.346;2022-08-01T14:20:24;7.00;;;1.42;;
48975;SDS011;34791;52.752;8.346;2022-08-01T14:22:49;6.90;;;1.38;;
48975;SDS011;34791;52.752;8.346;2022-08-01T14:25:15;7.80;;;1.40;;
48975;SDS011;34791;52.752;8.346;2022-08-01T14:27:40;6.80;;;1.30;;
48975;SDS011;34791;52.752;8.346;2022-08-01T14:30:07;8.32;;;1.90;;
48975;SDS011;34791;52.752;8.346;2022-08-01T14:32:32;6.15;;;1.40;;
48975;SDS011;34791;52.752;8.346;2022-08-01T14:34:58;7.55;;;1.40;;
48975;SDS011;34791;52.752;8.346;2022-08-01T14:37:23;5.90;;;1.35;;
48975;SDS011;34791;52.752;8.346;2022-08-01T14:39:49;7.38;;;1.40;;
48975;SDS011;34791;52.752;8.346;2022-08-01T14:42:14;7.97;;;1.42;;
48975;SDS011;34791;52.752;8.346;2022-08-01T14:44:40;6.22;;;1.20;;
48975;SDS011;34791;52.752;8.346;2022-08-01T14:47:05;8.88;;;1.95;;
48975;SDS011;34791;52.752;8.346;2022-08-01T14:49:30;8.43;;;1.38;;
48975;SDS011;34791;52.752;8.346;2022-08-01T14:51:55;7.15;;;1.60;;
48975;SDS011;34791;52.752;8.346;2022-08-01T14:54:21;8.10;;;1.52;;
48975;SDS011;34791;52.752;8.346;2022-08-01T14:56:46;7.75;;;1.60;;
48975;SDS011;34791;52.752;8.346;2022-08-01T14:59:11;8.48;;;1.80;;
48975;SDS011;34791;52.752;8.346;2022-08-01T15:01:37;6.07;;;1.40;;
48975;SDS011;34791;52.752;8.346;2022-08-01T15:04:02;8.82;;;2.13;;
48975;SDS011;34791;52.752;8.346;2022-08-01T15:06:27;9.98;;;1.80;;
48975;SDS011;34791;52.752;8.346;2022-08-01T15:08:53;9.45;;;1.38;;
48975;SDS011;34791;52.752;8.346;2022-08-01T15:11:18;4.88;;;1.17;;
48975;SDS011;34791;52.752;8.346;2022-08-01T15:13:43;6.28;;;1.40;;
48975;SDS011;34791;52.752;8.346;2022-08-01T15:16:09;5.88;;;1.23;;
48975;SDS011;34791;52.752;8.346;2022-08-01T15:18:34;7.70;;;1.50;;
48975;SDS011;34791;52.752;8.346;2022-08-01T15:20:59;7.25;;;1.20;;